sensor_id;sensor_type;location;lat;lon;timestamp;temperature;humidity
71088;SHT31;58747;50.674;4.616;2022-12-18T00:02:26;-4.40;91.30
71088;SHT31;58747;50.674;4.616;2022-12-18T00:04:52;-4.44;91.32
71088;SHT31;58747;50.674;4.616;2022-12-18T00:07:17;-4.48;91.23
71088;SHT31;58747;50.674;4.616;2022-12-18T00:09:42;-4.51;91.24
71088;SHT31;58747;50.674;4.616;2022-12-18T00:12:28;-4.60;91.29
71088;SHT31;58747;50.674;4.616;2022-12-18T00:14:56;-4.64;91.60
71088;SHT31;58747;50.674;4.616;2022-12-18T00:17:24;-4.60;91.70
71088;SHT31;58747;50.674;4.616;2022-12-18T00:19:49;-4.55;91.66
71088;SHT31;58747;50.674;4.616;2022-12-18T00:22:20;-4.58;91.73
71088;SHT31;58747;50.674;4.616;2022-12-18T00:24:46;-4.57;91.77
71088;SHT31;58747;50.674;4.616;2022-12-18T00:27:11;-4.51;91.23
71088;SHT31;58747;50.674;4.616;2022-12-18T00:29:39;-4.51;91.21
71088;SHT31;58747;50.674;4.616;2022-12-18T00:32:10;-4.55;91.48
71088;SHT31;58747;50.674;4.616;2022-12-18T00:34:36;-4.51;91.25
71088;SHT31;58747;50.674;4.616;2022-12-18T00:37:01;-4.48;91.09
71088;SHT31;58747;50.674;4.616;2022-12-18T00:39:27;-4.50;91.00
71088;SHT31;58747;50.674;4.616;2022-12-18T00:41:52;-4.44;90.34
71088;SHT31;58747;50.674;4.616;2022-12-18T00:44:36;-4.47;90.73
71088;SHT31;58747;50.674;4.616;2022-12-18T00:47:01;-4.41;90.20
71088;SHT31;58747;50.674;4.616;2022-12-18T00:49:26;-4.40;90.10
71088;SHT31;58747;50.674;4.616;2022-12-18T00:51:52;-4.30;89.28
71088;SHT31;58747;50.674;4.616;2022-12-18T00:54:17;-4.27;88.70
71088;SHT31;58747;50.674;4.616;2022-12-18T00:56:43;-4.23;88.38
71088;SHT31;58747;50.674;4.616;2022-12-18T00:59:08;-4.20;88.20
71088;SHT31;58747;50.674;4.616;2022-12-18T01:01:33;-4.23;88.08
71088;SHT31;58747;50.674;4.616;2022-12-18T01:04:00;-4.20;88.07
71088;SHT31;58747;50.674;4.616;2022-12-18T01:06:26;-4.17;87.55
71088;SHT31;58747;50.674;4.616;2022-12-18T01:08:51;-4.21;87.54
71088;SHT31;58747;50.674;4.616;2022-12-18T01:11:19;-4.23;87.99
71088;SHT31;58747;50.674;4.616;2022-12-18T01:13:45;-4.24;88.69
71088;SHT31;58747;50.674;4.616;2022-12-18T01:16:14;-4.30;88.79
71088;SHT31;58747;50.674;4.616;2022-12-18T01:18:40;-4.37;88.53
71088;SHT31;58747;50.674;4.616;2022-12-18T01:21:11;-4.41;88.82
71088;SHT31;58747;50.674;4.616;2022-12-18T01:23:36;-4.47;89.01
71088;SHT31;58747;50.674;4.616;2022-12-18T01:26:07;-4.51;89.41
71088;SHT31;58747;50.674;4.616;2022-12-18T01:28:32;-4.57;89.60
71088;SHT31;58747;50.674;4.616;2022-12-18T01:31:09;-4.64;89.74
71088;SHT31;58747;50.674;4.616;2022-12-18T01:33:34;-4.71;89.65
71088;SHT31;58747;50.674;4.616;2022-12-18T01:36:00;-4.72;89.51
71088;SHT31;58747;50.674;4.616;2022-12-18T01:38:25;-4.65;89.12
71088;SHT31;58747;50.674;4.616;2022-12-18T01:41:00;-4.65;89.70
71088;SHT31;58747;50.674;4.616;2022-12-18T01:46:07;-4.62;88.63
71088;SHT31;58747;50.674;4.616;2022-12-18T01:48:32;-4.58;88.71
71088;SHT31;58747;50.674;4.616;2022-12-18T01:50:57;-4.60;88.35
71088;SHT31;58747;50.674;4.616;2022-12-18T01:53:23;-4.60;88.30
71088;SHT31;58747;50.674;4.616;2022-12-18T01:55:55;-4.51;87.97
71088;SHT31;58747;50.674;4.616;2022-12-18T01:58:27;-4.51;87.93
71088;SHT31;58747;50.674;4.616;2022-12-18T02:00:54;-4.58;88.25
71088;SHT31;58747;50.674;4.616;2022-12-18T02:03:19;-4.51;87.53
71088;SHT31;58747;50.674;4.616;2022-12-18T02:06:09;-4.47;88.01
71088;SHT31;58747;50.674;4.616;2022-12-18T02:11:40;-4.62;88.40
71088;SHT31;58747;50.674;4.616;2022-12-18T02:14:17;-4.66;88.67
71088;SHT31;58747;50.674;4.616;2022-12-18T02:16:56;-4.72;88.74
71088;SHT31;58747;50.674;4.616;2022-12-18T02:25:33;-4.86;88.67
71088;SHT31;58747;50.674;4.616;2022-12-18T02:28:06;-4.96;88.70
71088;SHT31;58747;50.674;4.616;2022-12-18T02:30:35;-5.04;88.91
71088;SHT31;58747;50.674;4.616;2022-12-18T02:33:04;-5.04;89.06
71088;SHT31;58747;50.674;4.616;2022-12-18T02:35:30;-5.14;89.26
71088;SHT31;58747;50.674;4.616;2022-12-18T02:37:57;-5.17;89.36
71088;SHT31;58747;50.674;4.616;2022-12-18T02:40:25;-5.24;89.02
71088;SHT31;58747;50.674;4.616;2022-12-18T02:42:51;-5.28;88.79
71088;SHT31;58747;50.674;4.616;2022-12-18T02:45:17;-5.35;88.91
71088;SHT31;58747;50.674;4.616;2022-12-18T02:47:45;-5.38;89.59
71088;SHT31;58747;50.674;4.616;2022-12-18T02:55:38;-5.60;88.96
71088;SHT31;58747;50.674;4.616;2022-12-18T03:00:42;-5.67;89.40
71088;SHT31;58747;50.674;4.616;2022-12-18T03:03:15;-5.75;89.34
71088;SHT31;58747;50.674;4.616;2022-12-18T03:06:20;-5.77;89.09
71088;SHT31;58747;50.674;4.616;2022-12-18T03:08:43;-5.82;89.02
71088;SHT31;58747;50.674;4.616;2022-12-18T03:11:11;-5.86;88.97
71088;SHT31;58747;50.674;4.616;2022-12-18T03:13:44;-5.95;89.13
71088;SHT31;58747;50.674;4.616;2022-12-18T03:16:15;-6.03;89.85
71088;SHT31;58747;50.674;4.616;2022-12-18T03:18:48;-6.01;89.93
71088;SHT31;58747;50.674;4.616;2022-12-18T03:21:17;-6.01;90.08
71088;SHT31;58747;50.674;4.616;2022-12-18T03:23:48;-6.01;90.22
71088;SHT31;58747;50.674;4.616;2022-12-18T03:26:17;-6.05;89.80
71088;SHT31;58747;50.674;4.616;2022-12-18T03:28:51;-6.07;90.13
71088;SHT31;58747;50.674;4.616;2022-12-18T03:31:17;-6.12;90.31
71088;SHT31;58747;50.674;4.616;2022-12-18T03:33:50;-6.16;90.09
71088;SHT31;58747;50.674;4.616;2022-12-18T03:36:16;-6.17;90.49
71088;SHT31;58747;50.674;4.616;2022-12-18T03:38:42;-6.22;90.24
71088;SHT31;58747;50.674;4.616;2022-12-18T03:41:23;-6.23;90.28
71088;SHT31;58747;50.674;4.616;2022-12-18T03:44:01;-6.26;90.05
71088;SHT31;58747;50.674;4.616;2022-12-18T03:49:12;-6.36;90.25
71088;SHT31;58747;50.674;4.616;2022-12-18T03:51:54;-6.34;89.98
71088;SHT31;58747;50.674;4.616;2022-12-18T03:54:22;-6.40;89.91
71088;SHT31;58747;50.674;4.616;2022-12-18T03:56:57;-6.41;90.05
71088;SHT31;58747;50.674;4.616;2022-12-18T03:59:24;-6.41;90.34
71088;SHT31;58747;50.674;4.616;2022-12-18T04:01:52;-6.43;90.42
71088;SHT31;58747;50.674;4.616;2022-12-18T04:04:18;-6.43;90.48
71088;SHT31;58747;50.674;4.616;2022-12-18T04:06:46;-6.44;90.68
71088;SHT31;58747;50.674;4.616;2022-12-18T04:09:13;-6.47;90.58
71088;SHT31;58747;50.674;4.616;2022-12-18T04:11:40;-6.53;90.80
71088;SHT31;58747;50.674;4.616;2022-12-18T04:14:06;-6.50;90.89
71088;SHT31;58747;50.674;4.616;2022-12-18T04:16:31;-6.50;90.48
71088;SHT31;58747;50.674;4.616;2022-12-18T04:18:56;-6.51;90.49
71088;SHT31;58747;50.674;4.616;2022-12-18T04:21:22;-6.53;90.92
71088;SHT31;58747;50.674;4.616;2022-12-18T04:23:48;-6.53;90.59
71088;SHT31;58747;50.674;4.616;2022-12-18T04:26:13;-6.58;90.09
71088;SHT31;58747;50.674;4.616;2022-12-18T04:28:38;-6.60;90.07
71088;SHT31;58747;50.674;4.616;2022-12-18T04:31:05;-6.61;90.28
71088;SHT31;58747;50.674;4.616;2022-12-18T04:33:30;-6.68;90.44
71088;SHT31;58747;50.674;4.616;2022-12-18T04:35:55;-6.70;90.54
71088;SHT31;58747;50.674;4.616;2022-12-18T04:38:21;-6.74;90.60
71088;SHT31;58747;50.674;4.616;2022-12-18T04:40:46;-6.77;90.11
71088;SHT31;58747;50.674;4.616;2022-12-18T04:43:11;-6.78;89.80
71088;SHT31;58747;50.674;4.616;2022-12-18T04:45:37;-6.80;89.59
71088;SHT31;58747;50.674;4.616;2022-12-18T04:48:03;-6.81;89.83
71088;SHT31;58747;50.674;4.616;2022-12-18T04:50:29;-6.88;89.77
71088;SHT31;58747;50.674;4.616;2022-12-18T04:52:54;-6.89;89.98
71088;SHT31;58747;50.674;4.616;2022-12-18T04:55:20;-6.93;90.16
71088;SHT31;58747;50.674;4.616;2022-12-18T04:57:45;-6.95;89.94
71088;SHT31;58747;50.674;4.616;2022-12-18T05:00:11;-6.96;90.07
71088;SHT31;58747;50.674;4.616;2022-12-18T05:02:37;-6.96;90.20
71088;SHT31;58747;50.674;4.616;2022-12-18T05:05:03;-6.96;89.82
71088;SHT31;58747;50.674;4.616;2022-12-18T05:07:29;-6.99;90.02
71088;SHT31;58747;50.674;4.616;2022-12-18T05:09:54;-7.02;90.63
71088;SHT31;58747;50.674;4.616;2022-12-18T05:12:19;-7.06;90.31
71088;SHT31;58747;50.674;4.616;2022-12-18T05:14:45;-7.03;90.35
71088;SHT31;58747;50.674;4.616;2022-12-18T05:17:10;-7.03;89.97
71088;SHT31;58747;50.674;4.616;2022-12-18T05:19:38;-7.09;89.88
71088;SHT31;58747;50.674;4.616;2022-12-18T05:22:06;-7.03;90.31
71088;SHT31;58747;50.674;4.616;2022-12-18T05:24:32;-7.01;90.65
71088;SHT31;58747;50.674;4.616;2022-12-18T05:26:57;-7.02;90.85
71088;SHT31;58747;50.674;4.616;2022-12-18T05:29:22;-6.96;90.67
71088;SHT31;58747;50.674;4.616;2022-12-18T05:31:48;-6.91;90.44
71088;SHT31;58747;50.674;4.616;2022-12-18T05:34:13;-6.93;90.36
71088;SHT31;58747;50.674;4.616;2022-12-18T05:36:39;-6.96;90.48
71088;SHT31;58747;50.674;4.616;2022-12-18T05:39:04;-6.95;90.03
71088;SHT31;58747;50.674;4.616;2022-12-18T05:41:29;-6.96;89.99
71088;SHT31;58747;50.674;4.616;2022-12-18T05:43:55;-6.99;89.72
71088;SHT31;58747;50.674;4.616;2022-12-18T05:46:20;-7.02;89.79
71088;SHT31;58747;50.674;4.616;2022-12-18T05:48:46;-7.03;90.04
71088;SHT31;58747;50.674;4.616;2022-12-18T05:51:15;-7.05;89.95
71088;SHT31;58747;50.674;4.616;2022-12-18T05:53:41;-7.09;89.90
71088;SHT31;58747;50.674;4.616;2022-12-18T05:56:09;-7.08;89.91
71088;SHT31;58747;50.674;4.616;2022-12-18T05:58:34;-7.11;89.64
71088;SHT31;58747;50.674;4.616;2022-12-18T06:01:16;-7.13;89.58
71088;SHT31;58747;50.674;4.616;2022-12-18T06:03:42;-7.13;89.48
71088;SHT31;58747;50.674;4.616;2022-12-18T06:08:39;-7.19;89.31
71088;SHT31;58747;50.674;4.616;2022-12-18T06:11:04;-7.20;89.62
71088;SHT31;58747;50.674;4.616;2022-12-18T06:13:30;-7.19;89.50
71088;SHT31;58747;50.674;4.616;2022-12-18T06:15:55;-7.23;89.24
71088;SHT31;58747;50.674;4.616;2022-12-18T06:18:20;-7.22;89.69
71088;SHT31;58747;50.674;4.616;2022-12-18T06:20:54;-7.20;90.33
71088;SHT31;58747;50.674;4.616;2022-12-18T06:23:20;-7.19;90.35
71088;SHT31;58747;50.674;4.616;2022-12-18T06:25:45;-7.19;90.48
71088;SHT31;58747;50.674;4.616;2022-12-18T06:28:10;-7.22;90.33
71088;SHT31;58747;50.674;4.616;2022-12-18T06:30:35;-6.10;97.63
71088;SHT31;58747;50.674;4.616;2022-12-18T06:33:01;-5.46;92.86
71088;SHT31;58747;50.674;4.616;2022-12-18T06:35:26;-5.72;88.17
71088;SHT31;58747;50.674;4.616;2022-12-18T06:37:52;-5.98;86.69
71088;SHT31;58747;50.674;4.616;2022-12-18T06:40:17;-6.22;86.22
71088;SHT31;58747;50.674;4.616;2022-12-18T06:42:42;-6.41;86.97
71088;SHT31;58747;50.674;4.616;2022-12-18T06:45:08;-6.50;87.46
71088;SHT31;58747;50.674;4.616;2022-12-18T06:47:33;-6.60;87.83
71088;SHT31;58747;50.674;4.616;2022-12-18T06:49:59;-6.67;88.08
71088;SHT31;58747;50.674;4.616;2022-12-18T06:52:24;-6.75;88.59
71088;SHT31;58747;50.674;4.616;2022-12-18T06:54:49;-6.80;88.83
71088;SHT31;58747;50.674;4.616;2022-12-18T06:57:15;-6.82;88.90
71088;SHT31;58747;50.674;4.616;2022-12-18T06:59:40;-6.82;89.44
71088;SHT31;58747;50.674;4.616;2022-12-18T07:02:05;-6.82;89.80
71088;SHT31;58747;50.674;4.616;2022-12-18T07:04:31;-6.89;90.35
71088;SHT31;58747;50.674;4.616;2022-12-18T07:06:57;-6.82;90.59
71088;SHT31;58747;50.674;4.616;2022-12-18T07:09:23;-6.77;90.74
71088;SHT31;58747;50.674;4.616;2022-12-18T07:11:48;-6.75;90.69
71088;SHT31;58747;50.674;4.616;2022-12-18T07:14:13;-6.74;90.85
71088;SHT31;58747;50.674;4.616;2022-12-18T07:16:38;-6.75;91.13
71088;SHT31;58747;50.674;4.616;2022-12-18T07:19:04;-6.55;92.72
71088;SHT31;58747;50.674;4.616;2022-12-18T07:21:29;-6.50;91.61
71088;SHT31;58747;50.674;4.616;2022-12-18T07:23:54;-5.79;96.22
71088;SHT31;58747;50.674;4.616;2022-12-18T07:26:21;-5.82;93.15
71088;SHT31;58747;50.674;4.616;2022-12-18T07:28:47;-5.93;91.27
71088;SHT31;58747;50.674;4.616;2022-12-18T07:31:18;-6.03;90.34
71088;SHT31;58747;50.674;4.616;2022-12-18T07:33:45;-6.05;90.17
71088;SHT31;58747;50.674;4.616;2022-12-18T07:36:11;-6.09;90.23
71088;SHT31;58747;50.674;4.616;2022-12-18T07:38:37;-6.02;90.10
71088;SHT31;58747;50.674;4.616;2022-12-18T07:41:03;-5.98;90.00
71088;SHT31;58747;50.674;4.616;2022-12-18T07:43:29;-5.92;89.70
71088;SHT31;58747;50.674;4.616;2022-12-18T07:45:54;-5.34;94.98
71088;SHT31;58747;50.674;4.616;2022-12-18T07:48:19;-5.28;89.87
71088;SHT31;58747;50.674;4.616;2022-12-18T07:50:45;-5.41;88.17
71088;SHT31;58747;50.674;4.616;2022-12-18T07:53:10;-5.41;87.88
71088;SHT31;58747;50.674;4.616;2022-12-18T07:55:35;-5.47;87.97
71088;SHT31;58747;50.674;4.616;2022-12-18T07:58:02;-5.38;88.38
71088;SHT31;58747;50.674;4.616;2022-12-18T08:00:28;-5.30;87.25
71088;SHT31;58747;50.674;4.616;2022-12-18T08:02:53;-5.16;87.51
71088;SHT31;58747;50.674;4.616;2022-12-18T08:05:19;-5.12;87.25
71088;SHT31;58747;50.674;4.616;2022-12-18T08:07:45;-5.03;87.21
71088;SHT31;58747;50.674;4.616;2022-12-18T08:10:11;-4.95;86.98
71088;SHT31;58747;50.674;4.616;2022-12-18T08:12:36;-4.86;86.02
71088;SHT31;58747;50.674;4.616;2022-12-18T08:15:01;-4.82;86.73
71088;SHT31;58747;50.674;4.616;2022-12-18T08:17:27;-4.83;86.32
71088;SHT31;58747;50.674;4.616;2022-12-18T08:19:52;-4.74;85.65
71088;SHT31;58747;50.674;4.616;2022-12-18T08:22:17;-4.66;85.34
71088;SHT31;58747;50.674;4.616;2022-12-18T08:24:43;-4.64;85.90
71088;SHT31;58747;50.674;4.616;2022-12-18T08:27:08;-4.65;85.57
71088;SHT31;58747;50.674;4.616;2022-12-18T08:29:33;-4.68;85.93
71088;SHT31;58747;50.674;4.616;2022-12-18T08:31:59;-4.62;86.15
71088;SHT31;58747;50.674;4.616;2022-12-18T08:34:24;-4.50;85.71
71088;SHT31;58747;50.674;4.616;2022-12-18T08:36:49;-4.41;85.80
71088;SHT31;58747;50.674;4.616;2022-12-18T08:39:15;-4.21;84.85
71088;SHT31;58747;50.674;4.616;2022-12-18T08:41:40;-4.10;84.41
71088;SHT31;58747;50.674;4.616;2022-12-18T08:44:07;-3.95;83.45
71088;SHT31;58747;50.674;4.616;2022-12-18T08:46:51;-3.85;83.17
71088;SHT31;58747;50.674;4.616;2022-12-18T08:49:17;-3.82;83.01
71088;SHT31;58747;50.674;4.616;2022-12-18T08:51:42;-3.58;82.62
71088;SHT31;58747;50.674;4.616;2022-12-18T08:54:10;-3.61;83.30
71088;SHT31;58747;50.674;4.616;2022-12-18T08:56:36;-3.56;83.32
71088;SHT31;58747;50.674;4.616;2022-12-18T08:59:02;-3.48;82.34
71088;SHT31;58747;50.674;4.616;2022-12-18T09:01:27;-3.41;82.36
71088;SHT31;58747;50.674;4.616;2022-12-18T09:03:53;-3.30;82.58
71088;SHT31;58747;50.674;4.616;2022-12-18T09:06:20;-3.18;81.77
71088;SHT31;58747;50.674;4.616;2022-12-18T09:08:46;-3.08;81.83
71088;SHT31;58747;50.674;4.616;2022-12-18T09:11:15;-3.03;81.62
71088;SHT31;58747;50.674;4.616;2022-12-18T09:13:43;-2.97;81.59
71088;SHT31;58747;50.674;4.616;2022-12-18T09:16:08;-2.80;81.01
71088;SHT31;58747;50.674;4.616;2022-12-18T09:18:34;-2.69;81.05
71088;SHT31;58747;50.674;4.616;2022-12-18T09:21:07;-2.58;80.58
71088;SHT31;58747;50.674;4.616;2022-12-18T09:23:32;-2.56;80.20
71088;SHT31;58747;50.674;4.616;2022-12-18T09:25:59;-2.45;80.20
71088;SHT31;58747;50.674;4.616;2022-12-18T09:28:24;-2.41;80.34
71088;SHT31;58747;50.674;4.616;2022-12-18T09:30:49;-2.34;80.07
71088;SHT31;58747;50.674;4.616;2022-12-18T09:33:16;-2.25;79.97
71088;SHT31;58747;50.674;4.616;2022-12-18T09:35:43;-2.17;79.81
71088;SHT31;58747;50.674;4.616;2022-12-18T09:38:12;-2.08;80.28
71088;SHT31;58747;50.674;4.616;2022-12-18T09:40:44;-2.06;79.27
71088;SHT31;58747;50.674;4.616;2022-12-18T09:43:35;-1.97;78.91
71088;SHT31;58747;50.674;4.616;2022-12-18T09:46:06;-1.82;77.69
71088;SHT31;58747;50.674;4.616;2022-12-18T09:48:39;-1.75;78.97
71088;SHT31;58747;50.674;4.616;2022-12-18T09:51:13;-1.67;77.92
71088;SHT31;58747;50.674;4.616;2022-12-18T09:53:43;-1.72;78.27
71088;SHT31;58747;50.674;4.616;2022-12-18T09:56:16;-1.63;76.74
71088;SHT31;58747;50.674;4.616;2022-12-18T09:58:51;-1.51;77.01
71088;SHT31;58747;50.674;4.616;2022-12-18T10:01:21;-1.49;76.27
71088;SHT31;58747;50.674;4.616;2022-12-18T10:03:48;-1.49;76.25
71088;SHT31;58747;50.674;4.616;2022-12-18T10:06:20;-1.45;75.11
71088;SHT31;58747;50.674;4.616;2022-12-18T10:08:59;-1.35;75.30
71088;SHT31;58747;50.674;4.616;2022-12-18T10:11:46;-1.35;76.49
71088;SHT31;58747;50.674;4.616;2022-12-18T10:25:26;-0.98;74.59
71088;SHT31;58747;50.674;4.616;2022-12-18T10:27:58;-1.00;73.92
71088;SHT31;58747;50.674;4.616;2022-12-18T10:30:26;-0.88;73.41
71088;SHT31;58747;50.674;4.616;2022-12-18T10:32:52;-0.84;73.28
71088;SHT31;58747;50.674;4.616;2022-12-18T10:40:29;-0.74;72.79
71088;SHT31;58747;50.674;4.616;2022-12-18T10:43:04;-0.77;72.18
71088;SHT31;58747;50.674;4.616;2022-12-18T10:45:30;-0.76;72.03
71088;SHT31;58747;50.674;4.616;2022-12-18T10:47:56;-0.72;71.35
71088;SHT31;58747;50.674;4.616;2022-12-18T10:50:36;-0.60;71.11
71088;SHT31;58747;50.674;4.616;2022-12-18T10:53:03;-0.50;70.38
71088;SHT31;58747;50.674;4.616;2022-12-18T10:55:35;-0.43;70.39
71088;SHT31;58747;50.674;4.616;2022-12-18T10:58:30;-0.36;69.37
71088;SHT31;58747;50.674;4.616;2022-12-18T11:01:15;-0.25;69.54
71088;SHT31;58747;50.674;4.616;2022-12-18T11:06:18;-0.18;69.23
71088;SHT31;58747;50.674;4.616;2022-12-18T11:09:04;-0.15;68.65
71088;SHT31;58747;50.674;4.616;2022-12-18T11:11:31;-0.07;69.61
71088;SHT31;58747;50.674;4.616;2022-12-18T11:14:05;-0.18;69.58
71088;SHT31;58747;50.674;4.616;2022-12-18T11:16:44;-0.15;69.79
71088;SHT31;58747;50.674;4.616;2022-12-18T11:21:58;-0.08;68.89
71088;SHT31;58747;50.674;4.616;2022-12-18T11:24:33;-0.14;70.46
71088;SHT31;58747;50.674;4.616;2022-12-18T11:27:05;0.02;69.86
71088;SHT31;58747;50.674;4.616;2022-12-18T11:29:39;0.02;69.78
71088;SHT31;58747;50.674;4.616;2022-12-18T11:32:29;0.06;69.85
71088;SHT31;58747;50.674;4.616;2022-12-18T11:35:01;0.05;69.84
71088;SHT31;58747;50.674;4.616;2022-12-18T11:37:27;0.10;69.81
71088;SHT31;58747;50.674;4.616;2022-12-18T11:40:06;0.09;70.93
71088;SHT31;58747;50.674;4.616;2022-12-18T11:43:11;0.14;70.17
71088;SHT31;58747;50.674;4.616;2022-12-18T11:45:46;0.24;68.99
71088;SHT31;58747;50.674;4.616;2022-12-18T11:48:58;0.17;70.09
71088;SHT31;58747;50.674;4.616;2022-12-18T11:51:33;0.14;70.14
71088;SHT31;58747;50.674;4.616;2022-12-18T11:54:01;0.16;69.61
71088;SHT31;58747;50.674;4.616;2022-12-18T11:56:49;0.16;70.56
71088;SHT31;58747;50.674;4.616;2022-12-18T12:05:20;0.20;70.85
71088;SHT31;58747;50.674;4.616;2022-12-18T12:08:13;0.17;70.73
71088;SHT31;58747;50.674;4.616;2022-12-18T12:11:05;0.19;71.19
71088;SHT31;58747;50.674;4.616;2022-12-18T12:22:36;0.26;71.10
71088;SHT31;58747;50.674;4.616;2022-12-18T12:27:50;0.29;70.41
71088;SHT31;58747;50.674;4.616;2022-12-18T12:30:38;0.24;70.92
71088;SHT31;58747;50.674;4.616;2022-12-18T12:36:03;0.33;71.03
71088;SHT31;58747;50.674;4.616;2022-12-18T12:38:47;0.37;71.50
71088;SHT31;58747;50.674;4.616;2022-12-18T12:41:18;0.41;71.89
71088;SHT31;58747;50.674;4.616;2022-12-18T12:44:07;0.29;71.76
71088;SHT31;58747;50.674;4.616;2022-12-18T12:46:37;0.40;71.44
71088;SHT31;58747;50.674;4.616;2022-12-18T12:49:13;0.34;71.56
71088;SHT31;58747;50.674;4.616;2022-12-18T12:51:43;0.34;71.83
71088;SHT31;58747;50.674;4.616;2022-12-18T12:54:19;0.36;72.25
71088;SHT31;58747;50.674;4.616;2022-12-18T13:05:07;0.41;72.27
71088;SHT31;58747;50.674;4.616;2022-12-18T13:07:39;0.36;71.96
71088;SHT31;58747;50.674;4.616;2022-12-18T13:23:27;0.27;72.50
71088;SHT31;58747;50.674;4.616;2022-12-18T13:26:28;0.29;73.09
71088;SHT31;58747;50.674;4.616;2022-12-18T13:31:59;0.29;72.34
71088;SHT31;58747;50.674;4.616;2022-12-18T13:34:20;0.24;72.38
71088;SHT31;58747;50.674;4.616;2022-12-18T13:36:47;0.33;72.50
71088;SHT31;58747;50.674;4.616;2022-12-18T13:41:47;0.29;72.55
71088;SHT31;58747;50.674;4.616;2022-12-18T13:46:49;0.30;72.42
71088;SHT31;58747;50.674;4.616;2022-12-18T13:49:53;0.27;72.68
71088;SHT31;58747;50.674;4.616;2022-12-18T13:52:18;0.77;73.28
71088;SHT31;58747;50.674;4.616;2022-12-18T13:54:47;1.02;71.97
71088;SHT31;58747;50.674;4.616;2022-12-18T13:57:32;0.93;71.18
71088;SHT31;58747;50.674;4.616;2022-12-18T14:00:00;0.75;71.05
71088;SHT31;58747;50.674;4.616;2022-12-18T14:02:45;0.88;71.54
71088;SHT31;58747;50.674;4.616;2022-12-18T14:05:25;0.82;71.02
71088;SHT31;58747;50.674;4.616;2022-12-18T14:07:52;0.60;71.70
71088;SHT31;58747;50.674;4.616;2022-12-18T14:10:19;0.54;72.30
71088;SHT31;58747;50.674;4.616;2022-12-18T14:12:47;0.43;72.91
71088;SHT31;58747;50.674;4.616;2022-12-18T14:18:00;0.37;73.21
71088;SHT31;58747;50.674;4.616;2022-12-18T14:20:28;0.36;73.00
71088;SHT31;58747;50.674;4.616;2022-12-18T14:22:55;0.30;73.73
71088;SHT31;58747;50.674;4.616;2022-12-18T14:25:29;0.23;73.69
71088;SHT31;58747;50.674;4.616;2022-12-18T14:30:39;0.26;72.89
71088;SHT31;58747;50.674;4.616;2022-12-18T14:33:12;0.17;73.78
71088;SHT31;58747;50.674;4.616;2022-12-18T14:36:02;0.09;74.04
71088;SHT31;58747;50.674;4.616;2022-12-18T14:38:36;0.14;74.30
71088;SHT31;58747;50.674;4.616;2022-12-18T14:41:04;0.17;74.26
71088;SHT31;58747;50.674;4.616;2022-12-18T14:43:33;0.09;74.44
71088;SHT31;58747;50.674;4.616;2022-12-18T14:46:00;0.13;74.13
71088;SHT31;58747;50.674;4.616;2022-12-18T14:48:38;0.23;74.51
71088;SHT31;58747;50.674;4.616;2022-12-18T14:53:39;0.16;74.23
71088;SHT31;58747;50.674;4.616;2022-12-18T14:56:32;0.16;74.26
71088;SHT31;58747;50.674;4.616;2022-12-18T14:59:12;0.12;74.54
71088;SHT31;58747;50.674;4.616;2022-12-18T15:01:49;0.10;74.85
71088;SHT31;58747;50.674;4.616;2022-12-18T15:07:03;0.07;74.82
71088;SHT31;58747;50.674;4.616;2022-12-18T15:09:28;0.10;74.36
71088;SHT31;58747;50.674;4.616;2022-12-18T15:11:59;0.10;74.49
71088;SHT31;58747;50.674;4.616;2022-12-18T15:14:34;0.05;74.31
71088;SHT31;58747;50.674;4.616;2022-12-18T15:17:02;0.07;74.32
71088;SHT31;58747;50.674;4.616;2022-12-18T15:19:38;0.16;74.25
71088;SHT31;58747;50.674;4.616;2022-12-18T15:22:19;0.02;74.62
71088;SHT31;58747;50.674;4.616;2022-12-18T15:24:45;0.05;74.64
71088;SHT31;58747;50.674;4.616;2022-12-18T15:30:17;0.06;73.95
71088;SHT31;58747;50.674;4.616;2022-12-18T15:32:43;-0.02;74.68
71088;SHT31;58747;50.674;4.616;2022-12-18T15:35:23;0.02;74.21
71088;SHT31;58747;50.674;4.616;2022-12-18T15:37:50;0.07;74.03
71088;SHT31;58747;50.674;4.616;2022-12-18T15:40:22;0.09;73.42
71088;SHT31;58747;50.674;4.616;2022-12-18T15:42:48;0.14;73.49
71088;SHT31;58747;50.674;4.616;2022-12-18T15:45:33;0.16;73.73
71088;SHT31;58747;50.674;4.616;2022-12-18T15:47:58;0.13;73.45
71088;SHT31;58747;50.674;4.616;2022-12-18T15:50:24;0.20;72.84
71088;SHT31;58747;50.674;4.616;2022-12-18T15:52:52;0.14;72.74
71088;SHT31;58747;50.674;4.616;2022-12-18T15:55:23;0.20;72.55
71088;SHT31;58747;50.674;4.616;2022-12-18T15:58:09;0.26;71.93
71088;SHT31;58747;50.674;4.616;2022-12-18T16:00:35;0.21;71.86
71088;SHT31;58747;50.674;4.616;2022-12-18T16:03:02;0.19;72.19
71088;SHT31;58747;50.674;4.616;2022-12-18T16:05:28;0.17;71.94
71088;SHT31;58747;50.674;4.616;2022-12-18T16:07:54;0.40;72.52
71088;SHT31;58747;50.674;4.616;2022-12-18T16:10:19;0.36;71.54
71088;SHT31;58747;50.674;4.616;2022-12-18T16:12:45;0.33;71.23
71088;SHT31;58747;50.674;4.616;2022-12-18T16:15:13;0.30;71.55
71088;SHT31;58747;50.674;4.616;2022-12-18T16:17:43;0.70;71.89
71088;SHT31;58747;50.674;4.616;2022-12-18T16:20:16;0.64;69.88
71088;SHT31;58747;50.674;4.616;2022-12-18T16:22:42;0.61;70.15
71088;SHT31;58747;50.674;4.616;2022-12-18T16:25:23;0.51;70.98
71088;SHT31;58747;50.674;4.616;2022-12-18T16:27:49;0.50;70.68
71088;SHT31;58747;50.674;4.616;2022-12-18T16:30:17;0.46;71.04
71088;SHT31;58747;50.674;4.616;2022-12-18T16:32:43;0.43;70.97
71088;SHT31;58747;50.674;4.616;2022-12-18T16:35:10;0.46;70.65
71088;SHT31;58747;50.674;4.616;2022-12-18T16:37:36;0.47;70.66
71088;SHT31;58747;50.674;4.616;2022-12-18T16:40:01;0.50;70.60
71088;SHT31;58747;50.674;4.616;2022-12-18T16:42:27;0.46;70.41
71088;SHT31;58747;50.674;4.616;2022-12-18T16:44:52;0.49;70.35
71088;SHT31;58747;50.674;4.616;2022-12-18T16:47:18;0.46;70.73
71088;SHT31;58747;50.674;4.616;2022-12-18T16:49:43;0.46;70.83
71088;SHT31;58747;50.674;4.616;2022-12-18T16:52:10;0.51;69.99
71088;SHT31;58747;50.674;4.616;2022-12-18T16:54:35;0.50;70.46
71088;SHT31;58747;50.674;4.616;2022-12-18T16:57:01;0.57;69.54
71088;SHT31;58747;50.674;4.616;2022-12-18T16:59:27;0.58;69.67
71088;SHT31;58747;50.674;4.616;2022-12-18T17:01:53;0.57;69.43
71088;SHT31;58747;50.674;4.616;2022-12-18T17:04:19;0.54;69.25
71088;SHT31;58747;50.674;4.616;2022-12-18T17:06:45;0.61;70.20
71088;SHT31;58747;50.674;4.616;2022-12-18T17:09:17;0.60;69.84
71088;SHT31;58747;50.674;4.616;2022-12-18T17:11:53;0.65;69.86
71088;SHT31;58747;50.674;4.616;2022-12-18T17:14:20;0.64;69.87
71088;SHT31;58747;50.674;4.616;2022-12-18T17:16:49;0.71;69.41
71088;SHT31;58747;50.674;4.616;2022-12-18T17:19:15;0.71;69.38
71088;SHT31;58747;50.674;4.616;2022-12-18T17:21:42;0.67;69.84
71088;SHT31;58747;50.674;4.616;2022-12-18T17:24:08;0.67;70.07
71088;SHT31;58747;50.674;4.616;2022-12-18T17:26:33;0.60;70.58
71088;SHT31;58747;50.674;4.616;2022-12-18T17:28:59;0.58;71.12
71088;SHT31;58747;50.674;4.616;2022-12-18T17:31:26;0.54;71.65
71088;SHT31;58747;50.674;4.616;2022-12-18T17:33:52;0.51;72.16
71088;SHT31;58747;50.674;4.616;2022-12-18T17:36:18;0.44;72.90
71088;SHT31;58747;50.674;4.616;2022-12-18T17:38:49;0.44;73.18
71088;SHT31;58747;50.674;4.616;2022-12-18T17:41:15;0.39;73.65